createdAt,value
2018-12-24T00:01:14.710Z,23.81
2018-12-24T00:03:44.079Z,23.81
2018-12-24T00:06:13.486Z,23.81
2018-12-24T00:08:42.906Z,23.81
2018-12-24T00:11:12.396Z,23.81
2018-12-24T00:13:41.865Z,23.79
2018-12-24T00:16:11.247Z,23.80
2018-12-24T00:18:40.819Z,23.80
2018-12-24T00:21:10.301Z,23.80
2018-12-24T00:23:39.845Z,23.79
2018-12-24T00:26:09.512Z,23.79
2018-12-24T00:28:38.888Z,23.79
2018-12-24T00:31:08.296Z,23.78
2018-12-24T00:33:37.724Z,23.78
2018-12-24T00:36:07.095Z,23.79
2018-12-24T00:38:36.565Z,23.78
2018-12-24T00:41:06.147Z,23.77
2018-12-24T00:43:35.698Z,23.77
2018-12-24T00:46:05.073Z,23.76
2018-12-24T00:48:34.465Z,23.76
2018-12-24T00:51:03.891Z,23.76
2018-12-24T00:53:33.489Z,23.77
2018-12-24T00:56:03.021Z,23.76
2018-12-24T00:58:32.491Z,23.76
2018-12-24T01:01:02.022Z,23.74
2018-12-24T01:03:31.499Z,23.75
2018-12-24T01:06:00.990Z,23.74
2018-12-24T01:08:30.396Z,23.74
2018-12-24T01:11:00.038Z,23.74
2018-12-24T01:13:29.532Z,23.75
2018-12-24T01:15:58.913Z,23.76
2018-12-24T01:18:28.367Z,23.74
2018-12-24T01:20:57.823Z,23.75
2018-12-24T01:23:27.178Z,23.73
2018-12-24T01:25:56.556Z,23.74
2018-12-24T01:28:25.963Z,23.74
2018-12-24T01:30:55.309Z,23.76
2018-12-24T01:33:24.656Z,23.74
2018-12-24T01:35:54.037Z,23.77
2018-12-24T01:38:23.391Z,23.76
2018-12-24T01:40:52.735Z,23.76
2018-12-24T01:43:22.099Z,23.78
2018-12-24T01:45:51.452Z,23.78
2018-12-24T01:48:20.858Z,23.78
2018-12-24T01:50:50.301Z,23.78
2018-12-24T01:53:19.680Z,23.78
2018-12-24T01:55:49.123Z,23.78
2018-12-24T01:58:18.724Z,23.77
2018-12-24T02:00:48.225Z,23.78
2018-12-24T02:03:17.938Z,23.78
2018-12-24T02:05:47.474Z,23.78
2018-12-24T02:08:17.110Z,23.79
2018-12-24T02:10:46.503Z,23.79
2018-12-24T02:13:15.955Z,23.78
2018-12-24T02:15:45.405Z,23.80
2018-12-24T02:18:14.813Z,23.79
2018-12-24T02:20:44.209Z,23.80
2018-12-24T02:23:13.549Z,23.80
2018-12-24T02:25:42.891Z,23.80
2018-12-24T02:28:12.345Z,23.80
2018-12-24T02:30:41.921Z,23.80
2018-12-24T02:33:11.443Z,23.80
2018-12-24T02:35:41.031Z,23.80
2018-12-24T02:38:10.440Z,23.80
2018-12-24T02:40:39.797Z,23.80
2018-12-24T02:43:09.251Z,23.81
2018-12-24T02:45:38.611Z,23.80
2018-12-24T02:48:08.062Z,23.80
2018-12-24T02:50:37.456Z,23.80
2018-12-24T02:53:07.010Z,23.81
2018-12-24T02:55:36.544Z,23.80
2018-12-24T02:58:06.278Z,23.81
2018-12-24T03:00:35.761Z,23.82
2018-12-24T03:03:05.413Z,23.80
2018-12-24T03:05:35.018Z,23.80
2018-12-24T03:08:04.507Z,23.80
2018-12-24T03:10:34.021Z,23.80
2018-12-24T03:13:03.574Z,23.81
2018-12-24T03:15:32.944Z,23.81
2018-12-24T03:18:02.311Z,23.81
2018-12-24T03:20:31.763Z,23.81
2018-12-24T03:23:01.237Z,23.81
2018-12-24T03:25:30.710Z,23.82
2018-12-24T03:28:00.232Z,23.82
2018-12-24T03:30:29.710Z,23.82
2018-12-24T03:32:59.089Z,23.81
2018-12-24T03:35:28.512Z,23.81
2018-12-24T03:37:57.869Z,23.82
2018-12-24T03:40:27.643Z,23.82
2018-12-24T03:42:57.191Z,23.82
2018-12-24T03:45:26.555Z,23.82
2018-12-24T03:47:55.974Z,23.81
2018-12-24T03:50:25.490Z,23.82
2018-12-24T03:52:54.836Z,23.82
2018-12-24T03:55:24.178Z,23.82
2018-12-24T03:57:53.650Z,23.82
2018-12-24T04:00:24.054Z,23.81
2018-12-24T04:02:53.413Z,23.81
2018-12-24T04:05:22.997Z,23.82
2018-12-24T04:07:52.464Z,23.82
2018-12-24T04:10:21.827Z,23.82
2018-12-24T04:12:51.205Z,23.82
2018-12-24T04:15:20.643Z,23.82
2018-12-24T04:17:50.014Z,23.82
2018-12-24T04:20:19.359Z,23.82
2018-12-24T04:22:48.730Z,23.83
2018-12-24T04:25:18.118Z,23.82
2018-12-24T04:27:47.555Z,23.82
2018-12-24T04:30:16.948Z,23.83
2018-12-24T04:32:46.510Z,23.83
2018-12-24T04:35:15.923Z,23.83
2018-12-24T04:37:45.467Z,23.83
2018-12-24T04:40:14.969Z,23.82
2018-12-24T04:42:44.365Z,23.82
2018-12-24T04:45:13.980Z,23.83
2018-12-24T04:47:43.341Z,23.82
2018-12-24T04:50:12.786Z,23.82
2018-12-24T04:52:42.312Z,23.83
2018-12-24T04:55:11.721Z,23.82
2018-12-24T04:57:41.149Z,23.83
2018-12-24T05:00:10.484Z,23.83
2018-12-24T05:02:39.962Z,23.83
2018-12-24T05:05:09.436Z,23.83
2018-12-24T05:07:38.825Z,23.83
2018-12-24T05:10:08.185Z,23.83
2018-12-24T05:12:37.671Z,23.82
2018-12-24T05:15:07.391Z,23.83
2018-12-24T05:17:36.734Z,23.84
2018-12-24T05:20:06.153Z,23.84
2018-12-24T05:22:35.587Z,23.83
2018-12-24T05:25:05.005Z,23.83
2018-12-24T05:27:34.369Z,23.84
2018-12-24T05:30:03.935Z,23.83
2018-12-24T05:32:33.336Z,23.85
2018-12-24T05:35:02.692Z,23.83
2018-12-24T05:37:32.147Z,23.83
2018-12-24T05:40:01.501Z,23.84
2018-12-24T05:42:30.827Z,23.84
2018-12-24T05:45:00.266Z,23.83
2018-12-24T05:47:29.698Z,23.83
2018-12-24T05:49:59.291Z,23.82
2018-12-24T05:52:28.704Z,23.82
2018-12-24T05:54:58.244Z,23.82
2018-12-24T05:57:27.588Z,23.82
2018-12-24T05:59:56.962Z,23.82
2018-12-24T06:02:26.474Z,23.82
2018-12-24T06:04:55.840Z,23.81
2018-12-24T06:07:25.226Z,23.81
2018-12-24T06:09:54.636Z,23.81
2018-12-24T06:12:23.977Z,23.80
2018-12-24T06:14:53.521Z,23.80
2018-12-24T06:17:23.015Z,23.80
2018-12-24T06:19:52.539Z,23.80
2018-12-24T06:22:21.897Z,23.80
2018-12-24T06:24:51.499Z,23.80
2018-12-24T06:27:20.973Z,23.80
2018-12-24T06:29:50.398Z,23.80
2018-12-24T06:32:19.797Z,23.79
2018-12-24T06:34:49.202Z,23.80
2018-12-24T06:37:18.563Z,23.79
2018-12-24T06:39:47.963Z,23.79
2018-12-24T06:42:18.444Z,23.79
2018-12-24T06:44:47.810Z,23.79
2018-12-24T06:47:17.329Z,23.79
2018-12-24T06:49:46.763Z,23.79
2018-12-24T06:52:16.125Z,23.78
2018-12-24T06:54:45.527Z,23.79
2018-12-24T06:57:14.920Z,23.78
2018-12-24T06:59:44.304Z,23.78
2018-12-24T07:02:13.890Z,23.80
2018-12-24T07:04:43.247Z,23.78
2018-12-24T07:07:12.948Z,23.79
2018-12-24T07:09:42.335Z,23.79
2018-12-24T07:12:11.731Z,23.79
2018-12-24T07:14:41.083Z,23.79
2018-12-24T07:17:10.905Z,23.79
2018-12-24T07:19:40.238Z,23.79
2018-12-24T07:22:09.618Z,23.79
2018-12-24T07:24:39.033Z,23.79
2018-12-24T07:27:08.373Z,23.80
2018-12-24T07:29:37.737Z,23.80
2018-12-24T07:32:07.126Z,23.80
2018-12-24T07:34:36.606Z,23.80
2018-12-24T07:37:06.114Z,23.80
2018-12-24T07:39:35.624Z,23.80
2018-12-24T07:42:05.247Z,23.80
2018-12-24T07:44:34.691Z,23.80
2018-12-24T07:47:04.201Z,23.81
2018-12-24T07:49:33.552Z,23.81
2018-12-24T07:52:02.933Z,23.80
2018-12-24T07:54:32.369Z,23.82
2018-12-24T07:57:01.757Z,23.83
2018-12-24T07:59:31.148Z,23.83
2018-12-24T08:02:00.730Z,23.84
2018-12-24T08:04:30.223Z,23.84
2018-12-24T08:06:59.797Z,23.85
2018-12-24T08:09:29.233Z,23.86
2018-12-24T08:11:58.697Z,23.86
2018-12-24T08:14:32.894Z,23.87
2018-12-24T08:16:59.612Z,23.87
2018-12-24T08:19:30.787Z,23.88
2018-12-24T08:22:00.323Z,23.87
2018-12-24T08:24:29.804Z,23.90
2018-12-24T08:26:59.299Z,23.89
2018-12-24T08:29:28.663Z,23.90
2018-12-24T08:31:58.182Z,23.90
2018-12-24T08:34:27.570Z,23.90
2018-12-24T08:36:57.183Z,23.90
2018-12-24T08:39:26.700Z,23.90
2018-12-24T08:41:56.154Z,23.90
2018-12-24T08:44:25.545Z,23.91
2018-12-24T08:46:55.311Z,23.91
2018-12-24T08:49:24.660Z,23.92
2018-12-24T08:51:54.074Z,23.92
2018-12-24T08:54:23.573Z,23.92
2018-12-24T08:56:52.983Z,23.93
2018-12-24T08:59:22.368Z,23.93
2018-12-24T09:01:51.794Z,23.93
2018-12-24T09:04:23.187Z,23.94
2018-12-24T09:06:52.582Z,23.94
2018-12-24T09:09:22.060Z,23.94
2018-12-24T09:11:51.518Z,23.94
2018-12-24T09:14:22.233Z,23.94
2018-12-24T09:16:51.795Z,23.93
2018-12-24T09:19:21.439Z,23.94
2018-12-24T09:21:51.006Z,23.94
2018-12-24T09:24:20.669Z,23.95
2018-12-24T09:26:50.086Z,23.95
2018-12-24T09:29:19.473Z,23.96
2018-12-24T09:31:48.941Z,23.95
2018-12-24T09:34:18.624Z,23.96
2018-12-24T09:36:48.107Z,23.96
2018-12-24T09:39:17.956Z,23.96
2018-12-24T09:41:47.452Z,23.98
2018-12-24T09:44:16.904Z,23.97
2018-12-24T09:46:46.391Z,23.98
2018-12-24T09:49:15.953Z,23.98
2018-12-24T09:51:45.390Z,23.96
2018-12-24T09:54:14.905Z,23.97
2018-12-24T09:56:44.400Z,23.96
2018-12-24T09:59:14.210Z,23.98
2018-12-24T10:01:43.941Z,23.98
2018-12-24T10:04:41.970Z,23.98
2018-12-24T10:07:40.564Z,23.98
2018-12-24T10:10:16.017Z,23.98
2018-12-24T10:12:45.531Z,23.96
2018-12-24T10:15:15.141Z,23.94
2018-12-24T10:17:44.926Z,23.94
2018-12-24T10:20:14.425Z,23.95
2018-12-24T10:22:43.933Z,23.95
2018-12-24T10:25:13.323Z,23.95
2018-12-24T10:27:43.120Z,23.94
2018-12-24T10:30:12.555Z,23.94
2018-12-24T10:32:42.110Z,23.95
2018-12-24T10:35:11.831Z,23.95
2018-12-24T10:37:41.321Z,23.95
2018-12-24T10:40:16.009Z,23.95
2018-12-24T10:45:16.690Z,23.95
2018-12-24T10:47:44.732Z,23.94
2018-12-24T10:50:14.343Z,23.96
2018-12-24T10:52:46.103Z,23.95
2018-12-24T10:55:15.752Z,23.95
2018-12-24T10:57:45.187Z,23.95
2018-12-24T11:00:14.673Z,23.94
2018-12-24T11:02:44.096Z,23.95
2018-12-24T11:05:13.580Z,23.96
2018-12-24T11:07:43.188Z,23.95
2018-12-24T11:10:13.288Z,23.94
2018-12-24T11:12:42.655Z,23.95
2018-12-24T11:15:13.716Z,23.94
2018-12-24T11:17:43.236Z,23.95
2018-12-24T11:20:12.675Z,23.94
2018-12-24T11:22:42.052Z,23.94
2018-12-24T11:25:11.692Z,23.94
2018-12-24T11:27:41.286Z,23.95
2018-12-24T11:32:39.046Z,23.95
2018-12-24T11:35:08.842Z,23.94
2018-12-24T11:37:38.328Z,23.94
2018-12-24T11:40:08.056Z,23.95
2018-12-24T11:42:37.607Z,23.95
2018-12-24T11:45:07.333Z,23.93
2018-12-24T11:47:36.876Z,23.94
2018-12-24T11:50:06.358Z,23.92
2018-12-24T11:52:35.831Z,23.93
2018-12-24T11:55:05.478Z,23.92
2018-12-24T11:57:34.833Z,23.91
2018-12-24T12:00:04.463Z,23.91
2018-12-24T12:02:34.093Z,23.91
2018-12-24T12:05:03.680Z,23.90
2018-12-24T12:07:33.390Z,23.90
2018-12-24T12:10:04.611Z,23.89
2018-12-24T12:12:34.082Z,23.90
2018-12-24T12:15:03.579Z,23.88
2018-12-24T12:17:33.074Z,23.89
2018-12-24T12:20:02.684Z,23.89
2018-12-24T12:22:32.311Z,23.87
2018-12-24T12:25:01.894Z,23.88
2018-12-24T12:27:31.441Z,23.87
2018-12-24T12:30:00.993Z,23.87
2018-12-24T12:32:30.455Z,23.87
2018-12-24T12:34:59.847Z,23.87
2018-12-24T12:37:29.317Z,23.87
2018-12-24T12:39:58.751Z,23.86
2018-12-24T12:42:28.128Z,23.86
2018-12-24T12:44:57.542Z,23.85
2018-12-24T12:47:27.084Z,23.85
2018-12-24T12:49:58.927Z,23.86
2018-12-24T12:52:28.389Z,23.85
2018-12-24T12:54:58.008Z,23.85
2018-12-24T12:57:27.529Z,23.85
2018-12-24T12:59:57.007Z,23.85
2018-12-24T13:02:26.587Z,23.84
2018-12-24T13:04:56.118Z,23.84
2018-12-24T13:07:25.628Z,23.84
2018-12-24T13:09:55.223Z,23.84
2018-12-24T13:12:24.617Z,23.83
2018-12-24T13:14:54.047Z,23.83
2018-12-24T13:17:23.652Z,23.83
2018-12-24T13:19:53.194Z,23.82
2018-12-24T13:22:23.070Z,23.82
2018-12-24T13:24:52.619Z,23.82
2018-12-24T13:27:22.086Z,23.82
2018-12-24T13:29:51.474Z,23.81
2018-12-24T13:32:21.059Z,23.81
2018-12-24T13:34:50.711Z,23.83
2018-12-24T13:37:20.221Z,23.82
2018-12-24T13:39:49.664Z,23.81
2018-12-24T13:42:19.114Z,23.81
2018-12-24T13:44:48.517Z,23.81
2018-12-24T13:47:18.088Z,23.80
2018-12-24T13:49:47.543Z,23.81
2018-12-24T13:52:16.942Z,23.81
2018-12-24T13:54:46.360Z,23.80
2018-12-24T13:57:15.753Z,23.81
2018-12-24T13:59:45.171Z,23.80
2018-12-24T14:02:16.553Z,23.81
2018-12-24T14:04:45.731Z,23.81
2018-12-24T14:07:16.324Z,23.81
2018-12-24T14:09:45.768Z,23.81
2018-12-24T14:12:15.287Z,23.81
2018-12-24T14:14:44.722Z,23.81
2018-12-24T14:17:14.144Z,23.82
2018-12-24T14:19:43.573Z,23.82
2018-12-24T14:22:12.962Z,23.82
2018-12-24T14:24:42.404Z,23.83
2018-12-24T14:27:11.795Z,23.82
2018-12-24T14:29:42.555Z,23.83
2018-12-24T14:32:11.977Z,23.83
2018-12-24T14:34:41.469Z,23.82
2018-12-24T14:37:10.974Z,23.84
2018-12-24T14:39:40.382Z,23.84
2018-12-24T14:42:09.879Z,23.83
2018-12-24T14:44:39.618Z,23.84
2018-12-24T14:47:09.101Z,23.84
2018-12-24T14:49:38.599Z,23.85
2018-12-24T14:52:08.003Z,23.84
2018-12-24T14:54:37.678Z,23.84
2018-12-24T14:57:07.077Z,23.84
2018-12-24T14:59:36.514Z,23.84
2018-12-24T15:02:05.908Z,23.84
2018-12-24T15:04:35.414Z,23.85
2018-12-24T15:07:04.935Z,23.85
2018-12-24T15:09:34.314Z,23.85
2018-12-24T15:12:03.976Z,23.86
2018-12-24T15:14:33.355Z,23.86
2018-12-24T15:17:02.872Z,23.85
2018-12-24T15:19:33.766Z,23.86
2018-12-24T15:22:03.262Z,23.85
2018-12-24T15:24:32.823Z,23.85
2018-12-24T15:27:02.747Z,23.85
2018-12-24T15:29:32.241Z,23.86
2018-12-24T15:32:01.675Z,23.85
2018-12-24T15:34:31.046Z,23.85
2018-12-24T15:37:00.460Z,23.84
2018-12-24T15:39:30.062Z,23.85
2018-12-24T15:41:59.831Z,23.86
2018-12-24T15:44:29.442Z,23.86
2018-12-24T15:46:58.895Z,23.85
2018-12-24T15:49:28.389Z,23.85
2018-12-24T15:51:57.907Z,23.86
2018-12-24T15:54:27.349Z,23.86
2018-12-24T15:56:56.873Z,23.86
2018-12-24T15:59:26.370Z,23.85
2018-12-24T16:01:56.177Z,23.86
2018-12-24T16:04:25.757Z,23.86
2018-12-24T16:06:55.336Z,23.85
2018-12-24T16:09:26.077Z,23.85
2018-12-24T16:11:55.517Z,23.86
2018-12-24T16:14:24.925Z,23.86
2018-12-24T16:16:54.361Z,23.85
2018-12-24T16:19:23.914Z,23.86
2018-12-24T16:21:53.375Z,23.85
2018-12-24T16:24:22.770Z,23.85
2018-12-24T16:26:52.350Z,23.84
2018-12-24T16:29:21.995Z,23.84
2018-12-24T16:31:51.481Z,23.84
2018-12-24T16:34:20.951Z,23.84
2018-12-24T16:36:50.366Z,23.85
2018-12-24T16:39:19.898Z,23.84
2018-12-24T16:41:49.384Z,23.85
2018-12-24T16:44:18.766Z,23.84
2018-12-24T16:46:48.183Z,23.85
2018-12-24T16:49:17.748Z,23.84
2018-12-24T16:51:47.234Z,23.85
2018-12-24T16:54:16.611Z,23.84
2018-12-24T16:56:46.058Z,23.84
2018-12-24T16:59:15.549Z,23.84
2018-12-24T17:01:45.183Z,23.83
2018-12-24T17:04:14.675Z,23.83
2018-12-24T17:06:44.120Z,23.83
2018-12-24T17:09:13.671Z,23.84
2018-12-24T17:11:43.183Z,23.84
2018-12-24T17:14:12.624Z,23.84
2018-12-24T17:16:42.364Z,23.83
2018-12-24T17:19:11.823Z,23.83
2018-12-24T17:21:41.306Z,23.83
2018-12-24T17:24:10.856Z,23.84
2018-12-24T17:26:40.616Z,23.83
2018-12-24T17:29:10.021Z,23.83
2018-12-24T17:31:39.460Z,23.83
2018-12-24T17:34:09.042Z,23.83
2018-12-24T17:36:38.657Z,23.83
2018-12-24T17:39:09.529Z,23.82
2018-12-24T17:41:40.245Z,23.83
2018-12-24T17:44:09.928Z,23.83
2018-12-24T17:46:39.587Z,23.83
2018-12-24T17:49:09.076Z,23.84
2018-12-24T17:51:38.538Z,23.83
2018-12-24T17:54:08.186Z,23.82
2018-12-24T17:56:37.658Z,23.83
2018-12-24T17:59:07.273Z,23.83
2018-12-24T18:01:36.776Z,23.82
2018-12-24T18:04:06.386Z,23.82
2018-12-24T18:06:36.092Z,23.82
2018-12-24T18:09:08.087Z,23.81
2018-12-24T18:11:38.807Z,23.81
2018-12-24T18:14:08.226Z,23.81
2018-12-24T18:16:37.888Z,23.80
2018-12-24T18:19:07.331Z,23.80
2018-12-24T18:21:36.726Z,23.79
2018-12-24T18:24:06.186Z,23.79
2018-12-24T18:26:35.642Z,23.78
2018-12-24T18:29:05.125Z,23.78
2018-12-24T18:31:34.730Z,23.77
2018-12-24T18:34:04.131Z,23.78
2018-12-24T18:36:33.870Z,23.78
2018-12-24T18:39:04.576Z,23.77
2018-12-24T18:41:36.190Z,23.76
2018-12-24T18:44:06.420Z,23.75
2018-12-24T18:46:35.850Z,23.75
2018-12-24T18:49:05.283Z,23.74
2018-12-24T18:51:35.057Z,23.73
2018-12-24T18:54:04.678Z,23.72
2018-12-24T18:56:34.237Z,23.73
2018-12-24T18:59:03.729Z,23.72
2018-12-24T19:01:33.123Z,23.73
2018-12-24T19:04:02.786Z,23.70
2018-12-24T19:06:32.402Z,23.71
2018-12-24T19:09:01.916Z,23.71
2018-12-24T19:11:31.553Z,23.71
2018-12-24T19:14:01.358Z,23.71
2018-12-24T19:16:30.918Z,23.70
2018-12-24T19:19:00.588Z,23.70
2018-12-24T19:21:30.098Z,23.70
2018-12-24T19:23:59.629Z,23.69
2018-12-24T19:26:29.115Z,23.69
2018-12-24T19:28:58.610Z,23.68
2018-12-24T19:31:29.215Z,23.69
2018-12-24T19:33:58.860Z,23.68
2018-12-24T19:36:28.387Z,23.68
2018-12-24T19:38:57.947Z,23.68
2018-12-24T19:41:27.471Z,23.68
2018-12-24T19:43:56.978Z,23.68
2018-12-24T19:46:26.478Z,23.68
2018-12-24T19:48:56.046Z,23.68
2018-12-24T19:51:25.499Z,23.67
2018-12-24T19:53:55.067Z,23.67
2018-12-24T19:56:24.488Z,23.67
2018-12-24T19:58:53.912Z,23.68
2018-12-24T20:01:23.521Z,23.67
2018-12-24T20:03:52.950Z,23.67
2018-12-24T20:06:22.546Z,23.67
2018-12-24T20:08:52.120Z,23.68
2018-12-24T20:11:21.837Z,23.68
2018-12-24T20:13:51.516Z,23.68
2018-12-24T20:16:21.076Z,23.69
2018-12-24T20:18:50.485Z,23.69
2018-12-24T20:21:19.901Z,23.69
2018-12-24T20:23:49.337Z,23.69
2018-12-24T20:26:18.907Z,23.69
2018-12-24T20:28:48.423Z,23.69
2018-12-24T20:31:18.013Z,23.70
2018-12-24T20:33:47.708Z,23.70
2018-12-24T20:36:17.120Z,23.71
2018-12-24T20:38:46.575Z,23.71
2018-12-24T20:41:16.039Z,23.70
2018-12-24T20:43:45.589Z,23.72
2018-12-24T20:46:14.995Z,23.72
2018-12-24T20:48:44.495Z,23.72
2018-12-24T20:51:16.283Z,23.72
2018-12-24T20:53:45.210Z,23.72
2018-12-24T20:56:14.658Z,23.72
2018-12-24T20:58:44.215Z,23.72
2018-12-24T21:01:13.713Z,23.72
2018-12-24T21:03:43.220Z,23.73
2018-12-24T21:06:13.471Z,23.73
2018-12-24T21:08:43.161Z,23.72
2018-12-24T21:11:12.817Z,23.72
2018-12-24T21:13:42.317Z,23.73
2018-12-24T21:16:11.989Z,23.74
2018-12-24T21:18:41.703Z,23.74
2018-12-24T21:21:11.264Z,23.74
2018-12-24T21:23:40.726Z,23.74
2018-12-24T21:26:10.149Z,23.74
2018-12-24T21:28:39.666Z,23.74
2018-12-24T21:31:09.218Z,23.74
2018-12-24T21:33:38.635Z,23.75
2018-12-24T21:36:08.089Z,23.75
2018-12-24T21:38:37.679Z,23.74
2018-12-24T21:41:07.140Z,23.76
2018-12-24T21:43:36.567Z,23.74
2018-12-24T21:46:06.069Z,23.75
2018-12-24T21:48:35.484Z,23.76
2018-12-24T21:51:05.076Z,23.75
2018-12-24T21:53:34.627Z,23.76
2018-12-24T21:56:04.246Z,23.76
2018-12-24T21:58:33.855Z,23.75
2018-12-24T22:01:03.337Z,23.77
2018-12-24T22:03:32.759Z,23.77
2018-12-24T22:06:02.468Z,23.76
2018-12-24T22:08:31.981Z,23.77
2018-12-24T22:11:01.557Z,23.76
2018-12-24T22:13:31.151Z,23.75
2018-12-24T22:16:02.321Z,23.75
2018-12-24T22:18:32.366Z,23.76
2018-12-24T22:21:02.218Z,23.74
2018-12-24T22:23:31.774Z,23.74
2018-12-24T22:26:01.373Z,23.76
2018-12-24T22:28:30.811Z,23.76
2018-12-24T22:31:00.299Z,23.77
2018-12-24T22:33:29.738Z,23.75
2018-12-24T22:35:59.247Z,23.77
2018-12-24T22:38:28.733Z,23.77
2018-12-24T22:40:58.445Z,23.76
2018-12-24T22:43:27.933Z,23.78
2018-12-24T22:45:57.470Z,23.76
2018-12-24T22:48:26.877Z,23.77
2018-12-24T22:50:56.463Z,23.77
2018-12-24T22:53:28.254Z,23.76
2018-12-24T22:55:57.819Z,23.77
2018-12-24T22:58:27.303Z,23.77
2018-12-24T23:00:57.159Z,23.77
2018-12-24T23:03:26.793Z,23.75
2018-12-24T23:05:56.618Z,23.77
2018-12-24T23:08:26.195Z,23.77
2018-12-24T23:10:55.844Z,23.76
2018-12-24T23:13:25.686Z,23.76
2018-12-24T23:15:55.145Z,23.77
2018-12-24T23:18:24.702Z,23.77
2018-12-24T23:20:54.326Z,23.77
2018-12-24T23:23:23.873Z,23.77
2018-12-24T23:25:53.467Z,23.75
2018-12-24T23:28:23.144Z,23.75
2018-12-24T23:30:52.892Z,23.75
2018-12-24T23:33:22.562Z,23.75
2018-12-24T23:35:52.135Z,23.75
2018-12-24T23:38:21.713Z,23.75
2018-12-24T23:40:51.107Z,23.75
2018-12-24T23:43:20.795Z,23.77
2018-12-24T23:45:50.183Z,23.76
2018-12-24T23:48:19.738Z,23.74
2018-12-24T23:50:49.224Z,23.74
2018-12-24T23:53:18.783Z,23.75
2018-12-24T23:55:48.259Z,23.75
2018-12-24T23:58:17.997Z,23.74
